Time;durP1;ratioP1;P1;durP2;ratioP2;P2;SDS_P1;SDS_P2;PMS_P1;PMS_P2;Temp;Humidity;BMP_temperature;BMP_pressure;BME280_temperature;BME280_humidity;BME280_pressure;Samples;Min_cycle;Max_cycle;Signal;HPM_P1;HPM_P2
2021/07/10 00:00:37;;;;;;;13.63;9.60;;;19.30;99.90;;;;;;4442180;32;20151;-60
2021/07/10 00:03:05;;;;;;;16.10;9.80;;;19.30;99.90;;;;;;4442123;32;20169;-60
2021/07/10 00:05:32;;;;;;;15.07;10.00;;;19.30;99.90;;;;;;4442429;32;20234;-60
2021/07/10 00:08:00;;;;;;;18.60;11.03;;;19.40;99.90;;;;;;4441624;32;20146;-61
2021/07/10 00:10:27;;;;;;;18.63;11.60;;;19.40;99.90;;;;;;4442017;32;20196;-60
2021/07/10 00:12:54;;;;;;;18.03;11.80;;;19.30;99.90;;;;;;4441715;32;20169;-60
2021/07/10 00:15:22;;;;;;;21.47;12.73;;;19.30;99.90;;;;;;4441866;32;20533;-60
2021/07/10 00:17:50;;;;;;;23.23;13.27;;;19.30;99.90;;;;;;4440518;32;20155;-60
2021/07/10 00:20:18;;;;;;;21.43;13.87;;;19.40;99.90;;;;;;4441899;32;20147;-60
2021/07/10 00:22:45;;;;;;;25.43;14.90;;;19.30;99.90;;;;;;4442233;32;20210;-60
2021/07/10 00:25:15;;;;;;;23.50;14.43;;;19.30;99.90;;;;;;4441644;32;20185;-60
2021/07/10 00:27:44;;;;;;;24.03;15.57;;;19.40;99.90;;;;;;4441755;32;20174;-60
2021/07/10 00:30:12;;;;;;;25.80;15.90;;;19.40;99.90;;;;;;4442154;32;20135;-60
2021/07/10 00:32:39;;;;;;;23.77;14.67;;;19.40;99.90;;;;;;4441606;32;20142;-60
2021/07/10 00:35:07;;;;;;;27.43;15.97;;;19.40;99.90;;;;;;4441648;32;20386;-60
2021/07/10 00:37:35;;;;;;;27.37;16.93;;;19.50;99.90;;;;;;4441602;32;20146;-60
2021/07/10 00:40:04;;;;;;;29.83;17.60;;;19.50;99.90;;;;;;4441577;32;20194;-60
2021/07/10 00:42:33;;;;;;;30.40;17.03;;;19.50;99.90;;;;;;4441512;32;20203;-60
2021/07/10 00:45:00;;;;;;;27.50;17.47;;;19.50;99.90;;;;;;4441312;32;20390;-59
2021/07/10 00:47:27;;;;;;;28.20;17.00;;;19.50;99.90;;;;;;4441958;32;20147;-60
2021/07/10 00:49:54;;;;;;;28.80;17.10;;;19.60;99.90;;;;;;4442018;32;20449;-59
2021/07/10 00:52:21;;;;;;;27.57;17.97;;;19.60;99.90;;;;;;4439962;32;20146;-59
2021/07/10 00:54:48;;;;;;;31.23;18.07;;;19.60;99.90;;;;;;4441380;32;20135;-60
2021/07/10 00:57:16;;;;;;;29.13;17.80;;;19.60;99.90;;;;;;4441364;32;20536;-60
2021/07/10 00:59:44;;;;;;;29.17;18.23;;;19.60;99.90;;;;;;4441285;32;20135;-59
2021/07/10 01:02:11;;;;;;;31.37;18.30;;;19.60;99.90;;;;;;4441090;32;20166;-59
2021/07/10 01:04:38;;;;;;;31.23;18.47;;;19.60;99.90;;;;;;4440194;32;20214;-59
2021/07/10 01:07:06;;;;;;;29.83;18.13;;;19.50;99.90;;;;;;4441065;32;20192;-59
2021/07/10 01:09:33;;;;;;;29.27;18.13;;;19.50;99.90;;;;;;4441152;32;20194;-60
2021/07/10 01:12:00;;;;;;;30.70;18.80;;;19.40;99.90;;;;;;4440717;32;20142;-59
2021/07/10 01:14:27;;;;;;;31.97;19.17;;;19.30;99.90;;;;;;4441068;32;20158;-60
2021/07/10 01:16:53;;;;;;;26.77;18.20;;;19.30;99.90;;;;;;4440929;32;20162;-59
2021/07/10 01:19:28;;;;;;;29.37;17.70;;;19.30;99.90;;;;;;4440842;32;20182;-59
2021/07/10 01:21:56;;;;;;;28.10;17.93;;;19.30;99.90;;;;;;4440991;32;20165;-59
2021/07/10 01:24:24;;;;;;;27.90;18.10;;;19.30;99.90;;;;;;4439244;32;20192;-60
2021/07/10 01:26:52;;;;;;;25.67;17.40;;;19.30;99.90;;;;;;4439079;32;20182;-59
2021/07/10 01:29:19;;;;;;;26.30;17.47;;;19.30;99.90;;;;;;4440574;32;20147;-59
2021/07/10 01:31:47;;;;;;;27.83;16.90;;;19.30;99.90;;;;;;4440231;32;20139;-60
2021/07/10 01:34:14;;;;;;;30.07;17.87;;;19.30;99.90;;;;;;4440937;32;20194;-60
2021/07/10 01:36:41;;;;;;;28.10;18.00;;;19.30;99.90;;;;;;4440804;32;20162;-60
2021/07/10 01:39:08;;;;;;;25.27;17.20;;;19.30;99.90;;;;;;4440803;32;20188;-60
2021/07/10 01:41:46;;;;;;;26.07;17.43;;;19.30;99.90;;;;;;4440889;32;20143;-60
2021/07/10 01:44:13;;;;;;;24.17;15.93;;;19.30;99.90;;;;;;4440831;32;20142;-60
2021/07/10 01:46:40;;;;;;;24.97;16.70;;;19.20;99.90;;;;;;4441168;32;20214;-59
2021/07/10 01:49:07;;;;;;;25.97;16.50;;;19.30;99.90;;;;;;4440624;32;20147;-59
2021/07/10 01:51:34;;;;;;;23.60;15.70;;;19.30;99.90;;;;;;4440301;32;20191;-59
2021/07/10 01:54:01;;;;;;;23.93;15.47;;;19.30;99.90;;;;;;4440728;32;20142;-59
2021/07/10 01:56:28;;;;;;;25.90;16.70;;;19.30;99.90;;;;;;4439649;32;20146;-59
2021/07/10 01:58:55;;;;;;;24.47;15.20;;;19.30;99.90;;;;;;4440711;32;20196;-60
2021/07/10 02:01:22;;;;;;;24.30;15.77;;;19.30;99.90;;;;;;4440628;32;20150;-59
2021/07/10 02:03:50;;;;;;;22.53;15.77;;;19.30;99.90;;;;;;4440592;32;20268;-59
2021/07/10 02:06:17;;;;;;;24.57;15.37;;;19.30;99.90;;;;;;4441191;32;20143;-59
2021/07/10 02:08:44;;;;;;;22.37;15.50;;;19.30;99.90;;;;;;4440714;32;20277;-59
2021/07/10 02:11:12;;;;;;;27.70;16.97;;;19.30;99.90;;;;;;4440618;32;20154;-59
2021/07/10 02:13:39;;;;;;;25.40;15.63;;;19.30;99.90;;;;;;4439195;32;20456;-59
2021/07/10 02:16:06;;;;;;;22.73;16.33;;;19.20;99.90;;;;;;4440617;32;20435;-59
2021/07/10 02:18:33;;;;;;;26.80;16.97;;;19.20;99.90;;;;;;4440610;32;20191;-60
2021/07/10 02:21:00;;;;;;;27.27;16.27;;;19.30;99.90;;;;;;4440597;32;20143;-60
2021/07/10 02:23:27;;;;;;;23.53;16.47;;;19.30;99.90;;;;;;4440439;32;20184;-60
2021/07/10 02:25:54;;;;;;;25.50;16.53;;;19.20;99.90;;;;;;4439391;32;20401;-60
2021/07/10 02:28:21;;;;;;;24.57;17.30;;;19.30;99.90;;;;;;4440446;32;20161;-60
2021/07/10 02:30:48;;;;;;;24.83;16.40;;;19.30;99.90;;;;;;4440849;32;20139;-60
2021/07/10 02:33:16;;;;;;;25.30;15.93;;;19.30;99.90;;;;;;4443452;32;20183;-59
2021/07/10 02:35:44;;;;;;;26.73;16.57;;;19.30;99.90;;;;;;4443425;32;20173;-60
2021/07/10 02:38:12;;;;;;;23.20;16.13;;;19.40;99.90;;;;;;4441420;32;20425;-59
2021/07/10 02:40:39;;;;;;;24.07;16.77;;;19.30;99.90;;;;;;4443370;32;20196;-61
2021/07/10 02:43:06;;;;;;;27.43;16.93;;;19.30;99.90;;;;;;4443164;32;20146;-60
2021/07/10 02:45:35;;;;;;;25.30;15.97;;;19.30;99.90;;;;;;4443434;32;20158;-60
2021/07/10 02:48:02;;;;;;;27.30;17.63;;;19.30;99.90;;;;;;4443326;32;20464;-61
2021/07/10 02:50:29;;;;;;;26.60;17.60;;;19.30;99.90;;;;;;4442578;32;20411;-60
2021/07/10 02:52:56;;;;;;;25.57;17.77;;;19.30;99.90;;;;;;4443090;32;20147;-60
2021/07/10 02:55:24;;;;;;;26.17;17.47;;;19.30;99.90;;;;;;4443187;32;20211;-61
2021/07/10 02:57:51;;;;;;;28.87;17.23;;;19.20;99.90;;;;;;4441659;32;20196;-59
2021/07/10 03:00:21;;;;;;;31.37;18.23;;;19.20;99.90;;;;;;4441665;32;20206;-60
2021/07/10 03:02:48;;;;;;;27.20;17.60;;;19.30;99.90;;;;;;4442865;32;20252;-60
2021/07/10 03:05:16;;;;;;;25.97;17.10;;;19.30;99.90;;;;;;4442829;32;20189;-60
2021/07/10 03:07:44;;;;;;;28.73;17.67;;;19.30;99.90;;;;;;4442974;32;20259;-59
2021/07/10 03:10:15;;;;;;;25.67;16.47;;;19.30;99.90;;;;;;4443144;32;20203;-59
2021/07/10 03:12:43;;;;;;;25.03;17.07;;;19.30;99.90;;;;;;4443005;32;20185;-59
2021/07/10 03:15:13;;;;;;;29.40;17.60;;;19.30;99.90;;;;;;4442844;32;20191;-60
2021/07/10 03:17:40;;;;;;;29.07;17.63;;;19.30;99.90;;;;;;4442866;32;20400;-60
2021/07/10 03:20:07;;;;;;;28.13;17.87;;;19.30;99.90;;;;;;4442802;32;20150;-60
2021/07/10 03:22:34;;;;;;;28.37;17.80;;;19.30;99.90;;;;;;4441297;32;20181;-60
2021/07/10 03:25:04;;;;;;;28.37;17.60;;;19.40;99.90;;;;;;4442079;32;20192;-60
2021/07/10 03:27:32;;;;;;;28.80;17.73;;;19.40;99.90;;;;;;4442698;32;20151;-59
2021/07/10 03:29:58;;;;;;;31.23;19.00;;;19.50;99.90;;;;;;4442464;32;20180;-60
2021/07/10 03:32:25;;;;;;;27.73;17.43;;;19.50;99.90;;;;;;4441002;32;20536;-59
2021/07/10 03:34:52;;;;;;;28.67;17.60;;;19.50;99.90;;;;;;4442438;32;20162;-60
2021/07/10 03:37:19;;;;;;;28.90;18.57;;;19.50;99.90;;;;;;4442423;32;20185;-59
2021/07/10 03:39:46;;;;;;;26.33;17.80;;;19.50;99.90;;;;;;4442993;32;20146;-60
2021/07/10 03:42:13;;;;;;;29.23;17.90;;;19.50;99.90;;;;;;4440387;32;20223;-60
2021/07/10 03:44:40;;;;;;;27.17;18.27;;;19.60;99.90;;;;;;4442140;32;20154;-60
2021/07/10 03:47:06;;;;;;;29.37;18.57;;;19.60;99.90;;;;;;4442336;32;20151;-60
2021/07/10 03:49:34;;;;;;;30.33;18.80;;;19.50;99.90;;;;;;4442312;32;20158;-60
2021/07/10 03:52:01;;;;;;;29.77;18.33;;;19.50;99.90;;;;;;4442191;32;20147;-60
2021/07/10 03:54:27;;;;;;;27.70;18.80;;;19.50;99.90;;;;;;4442308;32;20521;-60
2021/07/10 03:56:54;;;;;;;30.93;18.73;;;19.50;99.90;;;;;;4442270;32;20181;-60
2021/07/10 03:59:21;;;;;;;32.53;17.77;;;19.60;99.90;;;;;;4441581;32;20481;-60
2021/07/10 04:01:48;;;;;;;26.67;17.67;;;19.60;99.90;;;;;;4440644;32;20191;-60
2021/07/10 04:04:15;;;;;;;30.57;18.43;;;19.60;99.90;;;;;;4442045;32;20235;-60
2021/07/10 04:06:42;;;;;;;26.50;17.60;;;19.60;99.90;;;;;;4442101;32;20390;-60
2021/07/10 04:09:09;;;;;;;31.60;18.63;;;19.70;99.90;;;;;;4442022;32;20196;-60
2021/07/10 04:11:36;;;;;;;28.17;19.00;;;19.60;99.90;;;;;;4441977;32;20150;-60
2021/07/10 04:14:03;;;;;;;27.50;17.90;;;19.50;99.90;;;;;;4441998;32;20182;-60
2021/07/10 04:16:30;;;;;;;29.07;18.03;;;19.60;99.90;;;;;;4442382;32;20188;-60
2021/07/10 04:18:57;;;;;;;28.20;19.23;;;19.60;99.90;;;;;;4441926;32;20394;-59
2021/07/10 04:21:24;;;;;;;28.07;18.30;;;19.50;99.90;;;;;;4442415;32;20154;-59
2021/07/10 04:23:52;;;;;;;31.97;18.97;;;19.50;99.90;;;;;;4441185;32;20159;-61
2021/07/10 04:26:19;;;;;;;33.47;20.43;;;19.30;99.90;;;;;;4439985;32;20224;-59
2021/07/10 04:28:46;;;;;;;31.03;19.37;;;19.30;99.90;;;;;;4441801;32;20177;-60
2021/07/10 04:31:13;;;;;;;31.63;20.00;;;19.30;99.90;;;;;;4441744;32;20547;-59
2021/07/10 04:33:40;;;;;;;27.33;19.43;;;19.30;99.90;;;;;;4441646;32;20177;-59
2021/07/10 04:36:07;;;;;;;29.77;18.83;;;19.30;99.90;;;;;;4440230;32;20177;-59
2021/07/10 04:38:37;;;;;;;28.20;18.87;;;19.40;99.90;;;;;;4441486;32;20246;-59
2021/07/10 04:41:05;;;;;;;30.03;19.10;;;19.40;99.90;;;;;;4442064;32;20169;-59
2021/07/10 04:43:33;;;;;;;32.03;19.20;;;19.40;99.90;;;;;;4441524;32;20170;-59
2021/07/10 04:46:01;;;;;;;33.30;19.83;;;19.40;99.90;;;;;;4439961;32;20401;-59
2021/07/10 04:48:27;;;;;;;30.20;19.67;;;19.30;99.90;;;;;;4441589;32;20166;-59
2021/07/10 04:50:55;;;;;;;34.57;19.43;;;19.30;99.90;;;;;;4441452;32;20172;-60
2021/07/10 04:53:22;;;;;;;31.77;20.10;;;19.40;99.90;;;;;;4441870;32;20154;-60
2021/07/10 04:55:49;;;;;;;30.73;20.03;;;19.30;99.90;;;;;;4441219;32;20139;-60
2021/07/10 04:58:16;;;;;;;35.87;21.13;;;19.30;99.90;;;;;;4441437;32;20147;-60
2021/07/10 05:00:43;;;;;;;35.23;20.97;;;19.30;99.90;;;;;;4441572;32;20174;-60
2021/07/10 05:03:11;;;;;;;37.90;21.70;;;19.30;99.90;;;;;;4440060;32;20177;-60
2021/07/10 05:05:41;;;;;;;36.60;20.40;;;19.30;99.90;;;;;;4441241;32;20151;-61
2021/07/10 05:08:08;;;;;;;34.30;21.97;;;19.40;99.90;;;;;;4441222;32;20214;-60
2021/07/10 05:10:35;;;;;;;36.43;22.43;;;19.30;99.90;;;;;;4441018;32;20198;-60
2021/07/10 05:13:03;;;;;;;33.63;21.00;;;19.30;99.90;;;;;;4441259;32;20386;-59
2021/07/10 05:15:31;;;;;;;34.80;21.57;;;19.40;99.90;;;;;;4441238;32;20403;-59
2021/07/10 05:17:57;;;;;;;38.53;21.93;;;19.40;99.90;;;;;;4441132;32;20146;-59
2021/07/10 05:20:25;;;;;;;34.10;22.50;;;19.40;99.90;;;;;;4439671;32;20468;-59
2021/07/10 05:22:52;;;;;;;33.50;21.07;;;19.50;99.90;;;;;;4439524;32;20180;-60
2021/07/10 05:25:19;;;;;;;33.23;21.13;;;19.40;99.90;;;;;;4440161;32;20513;-60
2021/07/10 05:27:46;;;;;;;35.23;22.00;;;19.50;99.90;;;;;;4440936;32;20469;-60
2021/07/10 05:30:16;;;;;;;35.80;22.43;;;19.50;99.90;;;;;;4439462;32;20203;-60
2021/07/10 05:32:43;;;;;;;36.03;21.73;;;19.40;99.90;;;;;;4441035;32;20252;-60
2021/07/10 05:35:11;;;;;;;29.03;17.70;;;19.50;99.90;;;;;;4439377;32;20170;-60
2021/07/10 05:37:38;;;;;;;23.23;14.33;;;19.40;99.90;;;;;;4441345;32;20155;-60
2021/07/10 05:40:07;;;;;;;18.80;13.73;;;19.20;99.90;;;;;;4440434;32;20139;-60
2021/07/10 05:42:34;;;;;;;21.63;13.80;;;19.00;99.90;;;;;;4440787;32;20151;-60
2021/07/10 05:45:01;;;;;;;18.70;13.47;;;19.00;99.90;;;;;;4440753;32;20476;-60
2021/07/10 05:47:27;;;;;;;22.53;12.80;;;19.00;99.90;;;;;;4439174;32;20180;-60
2021/07/10 05:49:54;;;;;;;20.93;13.13;;;18.90;99.90;;;;;;4440914;32;20143;-60
2021/07/10 05:52:21;;;;;;;17.60;13.20;;;18.90;99.90;;;;;;4440687;32;20169;-60
2021/07/10 05:54:48;;;;;;;18.90;12.37;;;18.80;99.90;;;;;;4439497;32;20200;-60
2021/07/10 05:57:15;;;;;;;16.53;11.80;;;18.70;99.90;;;;;;4440662;32;20139;-59
2021/07/10 05:59:42;;;;;;;17.97;11.70;;;18.70;99.90;;;;;;4440385;32;20142;-59
2021/07/10 06:02:09;;;;;;;18.30;11.10;;;18.70;99.90;;;;;;4440449;32;20187;-60
2021/07/10 06:04:36;;;;;;;19.27;10.83;;;18.60;99.90;;;;;;4440591;32;20206;-59
2021/07/10 06:07:06;;;;;;;16.57;11.07;;;18.50;99.90;;;;;;4442728;32;20150;-59
2021/07/10 06:09:34;;;;;;;15.17;10.20;;;18.30;99.90;;;;;;4443805;32;20142;-59
2021/07/10 06:12:02;;;;;;;16.10;11.10;;;18.30;99.90;;;;;;4443877;32;20459;-59
2021/07/10 06:14:29;;;;;;;17.10;11.23;;;18.30;99.90;;;;;;4443689;32;20192;-59
2021/07/10 06:16:57;;;;;;;17.77;11.37;;;18.30;99.90;;;;;;4442774;32;20449;-59
2021/07/10 06:19:24;;;;;;;17.77;10.77;;;18.40;99.90;;;;;;4443675;32;20186;-60
2021/07/10 06:21:51;;;;;;;14.07;10.40;;;18.40;99.90;;;;;;4442925;32;20258;-59
2021/07/10 06:24:19;;;;;;;11.90;9.03;;;18.40;99.90;;;;;;4443465;32;20200;-59
2021/07/10 06:26:45;;;;;;;13.97;9.50;;;18.30;99.90;;;;;;4441167;32;20505;-60
2021/07/10 06:29:16;;;;;;;14.37;9.10;;;18.40;99.90;;;;;;4443403;32;20464;-60
2021/07/10 06:31:43;;;;;;;11.80;8.80;;;18.50;99.90;;;;;;4443497;32;20492;-61
2021/07/10 06:34:10;;;;;;;16.90;10.00;;;18.50;99.90;;;;;;4442888;32;20155;-59
2021/07/10 06:36:38;;;;;;;13.07;9.50;;;18.60;99.90;;;;;;4441702;32;20142;-60
2021/07/10 06:39:06;;;;;;;14.30;9.70;;;18.80;99.90;;;;;;4443110;32;20149;-60
2021/07/10 06:41:33;;;;;;;15.73;10.50;;;18.80;99.90;;;;;;4443239;32;20237;-59
2021/07/10 06:44:00;;;;;;;12.20;9.07;;;18.80;99.90;;;;;;4443206;32;20155;-60
2021/07/10 06:46:27;;;;;;;12.83;8.63;;;18.80;99.90;;;;;;4442169;32;20456;-59
2021/07/10 06:48:54;;;;;;;14.40;8.53;;;18.80;99.90;;;;;;4443099;32;20181;-60
2021/07/10 06:51:21;;;;;;;9.53;8.03;;;18.80;99.90;;;;;;4443272;32;20257;-60
2021/07/10 06:53:49;;;;;;;9.77;7.33;;;18.80;99.90;;;;;;4441790;32;20199;-59
2021/07/10 06:56:16;;;;;;;10.97;8.07;;;18.80;99.90;;;;;;4442887;32;20154;-60
2021/07/10 06:58:43;;;;;;;10.63;7.43;;;18.80;99.90;;;;;;4442949;32;20166;-60
2021/07/10 07:01:09;;;;;;;9.83;7.87;;;19.00;99.90;;;;;;4442793;32;20146;-60
2021/07/10 07:03:36;;;;;;;10.50;8.47;;;19.10;99.90;;;;;;4442027;32;20476;-60
2021/07/10 07:06:03;;;;;;;9.60;8.23;;;19.00;99.90;;;;;;4443077;32;20656;-60
2021/07/10 07:08:30;;;;;;;9.60;7.47;;;19.00;99.90;;;;;;4442722;32;20459;-60
2021/07/10 07:10:57;;;;;;;10.73;8.67;;;18.80;99.90;;;;;;4442376;32;20147;-60
2021/07/10 07:13:24;;;;;;;11.20;8.40;;;18.90;99.90;;;;;;4442639;32;20186;-60
2021/07/10 07:15:51;;;;;;;9.50;8.10;;;18.90;99.90;;;;;;4442663;32;20575;-60
2021/07/10 07:18:18;;;;;;;8.90;7.90;;;18.60;99.90;;;;;;4441691;32;20153;-60
2021/07/10 07:21:03;;;;;;;10.07;7.70;;;18.60;99.90;;;;;;4442514;32;20154;-60
2021/07/10 07:23:30;;;;;;;8.63;6.80;;;18.60;99.90;;;;;;4440821;32;20358;-60
2021/07/10 07:25:57;;;;;;;9.73;7.07;;;18.50;99.90;;;;;;4441399;32;20181;-60
2021/07/10 07:28:23;;;;;;;7.60;6.47;;;18.70;99.90;;;;;;4440987;32;20246;-60
2021/07/10 07:30:50;;;;;;;11.53;7.20;;;18.80;99.90;;;;;;4441696;32;20170;-60
2021/07/10 07:33:17;;;;;;;9.60;7.77;;;18.90;99.90;;;;;;4442367;32;20177;-60
2021/07/10 07:35:44;;;;;;;10.17;6.67;;;19.10;99.90;;;;;;4442211;32;20213;-60
2021/07/10 07:38:11;;;;;;;11.93;6.70;;;19.10;99.90;;;;;;4442138;32;20150;-60
2021/07/10 07:40:38;;;;;;;8.37;6.93;;;19.00;99.90;;;;;;4441577;32;20199;-60
2021/07/10 07:43:05;;;;;;;8.63;7.73;;;19.40;99.90;;;;;;4441418;32;20205;-60
2021/07/10 07:45:32;;;;;;;9.63;6.90;;;19.60;99.90;;;;;;4442236;32;20154;-60
2021/07/10 07:47:59;;;;;;;11.33;7.57;;;19.80;99.90;;;;;;4442063;32;20449;-59
2021/07/10 07:50:26;;;;;;;9.50;6.33;;;19.90;99.90;;;;;;4440063;32;20138;-60
2021/07/10 07:52:53;;;;;;;8.13;6.00;;;19.70;99.90;;;;;;4442236;32;20135;-61
2021/07/10 07:55:20;;;;;;;9.33;5.63;;;19.90;99.90;;;;;;4441892;32;20169;-59
2021/07/10 07:57:47;;;;;;;7.03;5.60;;;19.70;99.90;;;;;;4440500;32;20150;-60
2021/07/10 08:00:21;;;;;;;7.10;5.50;;;19.50;99.90;;;;;;4441996;32;20186;-60
2021/07/10 08:02:52;;;;;;;7.30;4.43;;;19.40;99.90;;;;;;4442147;32;20436;-60
2021/07/10 08:05:19;;;;;;;4.90;4.40;;;19.40;99.90;;;;;;4441974;32;20151;-60
2021/07/10 08:07:46;;;;;;;4.57;3.83;;;19.30;99.90;;;;;;4440647;32;20185;-60
2021/07/10 08:10:15;;;;;;;5.47;4.07;;;19.30;99.90;;;;;;4441940;32;20177;-59
2021/07/10 08:12:45;;;;;;;3.77;3.27;;;19.30;99.90;;;;;;4441942;32;20461;-60
2021/07/10 08:15:14;;;;;;;4.67;3.10;;;19.30;99.90;;;;;;4440886;32;20210;-60
2021/07/10 08:17:43;;;;;;;5.73;2.73;;;19.30;99.90;;;;;;4441777;32;20164;-60
2021/07/10 08:20:11;;;;;;;5.43;2.67;;;19.30;99.90;;;;;;4441622;32;20162;-60
2021/07/10 08:22:38;;;;;;;2.80;2.60;;;19.30;99.90;;;;;;4440532;32;20429;-60
2021/07/10 08:25:06;;;;;;;3.23;2.30;;;19.40;99.90;;;;;;4440702;32;20184;-60
2021/07/10 08:27:33;;;;;;;3.33;2.40;;;19.30;99.90;;;;;;4441902;32;20395;-60
2021/07/10 08:30:01;;;;;;;2.43;2.10;;;19.30;99.90;;;;;;4439601;32;20146;-60
2021/07/10 08:32:28;;;;;;;2.40;2.20;;;19.40;99.90;;;;;;4441522;32;20173;-59
2021/07/10 08:34:55;;;;;;;2.40;2.20;;;19.20;99.90;;;;;;4441286;32;20193;-59
2021/07/10 08:37:22;;;;;;;2.87;2.40;;;19.00;99.90;;;;;;4441282;32;20142;-59
2021/07/10 08:39:49;;;;;;;2.33;2.13;;;19.10;99.90;;;;;;4441185;32;20146;-60
2021/07/10 08:42:16;;;;;;;3.47;2.20;;;19.10;99.90;;;;;;4441170;32;20186;-60
2021/07/10 08:44:47;;;;;;;5.00;2.30;;;19.20;99.90;;;;;;4439783;32;20150;-59
2021/07/10 08:47:14;;;;;;;2.57;1.93;;;19.50;99.90;;;;;;4441268;32;20146;-60
2021/07/10 08:49:42;;;;;;;2.57;1.97;;;19.60;99.90;;;;;;4441608;32;20168;-59
2021/07/10 08:52:10;;;;;;;2.10;1.90;;;19.70;99.90;;;;;;4441132;32;20147;-59
2021/07/10 08:54:37;;;;;;;3.60;2.33;;;19.70;99.90;;;;;;4439623;32;20135;-60
2021/07/10 08:57:05;;;;;;;1.97;1.70;;;19.90;99.90;;;;;;4440908;32;20150;-59
2021/07/10 08:59:32;;;;;;;2.43;2.00;;;20.00;99.90;;;;;;4440636;32;20146;-60
2021/07/10 09:01:59;;;;;;;2.10;1.90;;;20.30;99.90;;;;;;4440942;32;20192;-60
2021/07/10 09:04:26;;;;;;;5.20;2.00;;;20.70;99.90;;;;;;4440431;32;20197;-60
2021/07/10 09:06:53;;;;;;;1.87;1.77;;;21.00;99.90;;;;;;4440271;32;20426;-60
2021/07/10 09:09:20;;;;;;;3.60;1.80;;;21.20;99.90;;;;;;4440401;32;20173;-60
2021/07/10 09:12:00;;;;;;;2.57;1.70;;;21.20;99.90;;;;;;4440951;32;20142;-59
2021/07/10 09:14:29;;;;;;;3.97;1.80;;;21.10;99.90;;;;;;4440878;32;20195;-59
2021/07/10 09:17:17;;;;;;;2.07;1.87;;;21.00;99.90;;;;;;4440418;32;20188;-60
2021/07/10 09:19:44;;;;;;;1.67;1.50;;;21.40;99.90;;;;;;4440207;32;20150;-60
2021/07/10 09:22:27;;;;;;;4.00;1.60;;;21.40;99.90;;;;;;4440856;32;20397;-59
2021/07/10 09:24:56;;;;;;;3.20;1.40;;;21.20;99.90;;;;;;4440323;32;20184;-60
2021/07/10 09:27:23;;;;;;;4.03;1.57;;;21.60;99.90;;;;;;4441206;32;20150;-60
2021/07/10 09:29:50;;;;;;;3.03;1.30;;;22.30;99.90;;;;;;4439243;32;20438;-61
2021/07/10 09:32:21;;;;;;;1.60;1.47;;;22.20;99.90;;;;;;4440117;32;20577;-60
2021/07/10 09:34:57;;;;;;;2.40;1.50;;;22.00;99.90;;;;;;4441161;32;20195;-60
2021/07/10 09:37:26;;;;;;;1.50;1.30;;;22.10;99.90;;;;;;4441119;32;20190;-60
2021/07/10 09:40:09;;;;;;;5.63;1.50;;;22.00;99.90;;;;;;4440302;32;20182;-59
2021/07/10 09:42:40;;;;;;;4.03;1.20;;;22.10;99.90;;;;;;4439761;32;20393;-60
2021/07/10 09:45:14;;;;;;;1.50;1.10;;;22.10;99.90;;;;;;4441049;32;20154;-59
2021/07/10 09:47:42;;;;;;;1.23;1.13;;;22.60;99.90;;;;;;4439778;32;20162;-59
2021/07/10 09:50:18;;;;;;;3.73;1.30;;;22.90;99.90;;;;;;4439403;32;20196;-59
2021/07/10 09:52:45;;;;;;;2.90;1.50;;;23.30;99.90;;;;;;4440479;32;20403;-61
2021/07/10 09:55:17;;;;;;;2.17;1.40;;;23.70;99.90;;;;;;4438887;32;20207;-60
2021/07/10 09:57:45;;;;;;;4.32;1.30;;;24.00;99.90;;;;;;4440614;32;20206;-60
2021/07/10 10:00:14;;;;;;;2.80;1.50;;;24.50;99.90;;;;;;4439127;32;20169;-60
2021/07/10 10:02:46;;;;;;;1.85;1.55;;;24.40;99.90;;;;;;4440351;32;20151;-59
2021/07/10 10:05:15;;;;;;;1.87;1.33;;;23.70;99.90;;;;;;4440445;32;20477;-60
2021/07/10 10:07:47;;;;;;;1.65;1.55;;;23.50;99.90;;;;;;4440419;32;20143;-59
2021/07/10 10:10:24;;;;;;;1.70;1.40;;;23.70;99.90;;;;;;4440014;32;20226;-60
2021/07/10 10:13:07;;;;;;;2.15;1.40;;;23.50;99.90;;;;;;4440352;32;20158;-60
2021/07/10 10:15:43;;;;;;;2.15;1.58;;;22.70;99.90;;;;;;4439972;32;20139;-60
2021/07/10 10:18:14;;;;;;;2.22;1.50;;;22.70;99.90;;;;;;4440189;32;20387;-60
2021/07/10 10:20:42;;;;;;;6.83;1.73;;;22.80;99.90;;;;;;4440695;32;20191;-59
2021/07/10 10:23:10;;;;;;;2.65;1.40;;;23.20;99.90;;;;;;4439201;32;20150;-60
2021/07/10 10:25:37;;;;;;;1.27;1.17;;;23.50;99.90;;;;;;4439079;32;20207;-60
2021/07/10 10:28:06;;;;;;;2.37;1.60;;;24.00;99.90;;;;;;4440197;32;20146;-60
2021/07/10 10:30:34;;;;;;;3.05;1.20;;;24.70;99.90;;;;;;4438620;32;20158;-60
2021/07/10 10:33:01;;;;;;;1.17;1.10;;;25.20;99.90;;;;;;4440208;32;20143;-60
2021/07/10 10:35:29;;;;;;;1.20;1.10;;;26.00;99.90;;;;;;4439180;32;20391;-60
2021/07/10 10:37:56;;;;;;;5.45;1.45;;;26.30;99.90;;;;;;4439804;32;20185;-60
2021/07/10 10:40:26;;;;;;;1.65;1.40;;;26.40;99.90;;;;;;4439892;32;20143;-60
2021/07/10 10:42:55;;;;;;;2.03;1.30;;;25.50;99.90;;;;;;4440034;32;20269;-60
2021/07/10 10:45:43;;;;;;;2.47;1.60;;;24.80;99.90;;;;;;4439212;32;20201;-60
2021/07/10 10:48:10;;;;;;;3.15;1.77;;;24.20;99.90;;;;;;4440040;32;20170;-60
2021/07/10 10:50:40;;;;;;;2.37;1.80;;;24.20;99.90;;;;;;4438034;32;20210;-59
2021/07/10 10:53:09;;;;;;;2.20;1.83;;;24.50;99.90;;;;;;4440146;32;20488;-60
2021/07/10 10:55:38;;;;;;;6.45;2.28;;;24.70;99.90;;;;;;4442710;32;20170;-60
2021/07/10 10:58:13;;;;;;;2.73;1.90;;;23.90;99.90;;;;;;4442807;32;20164;-60
2021/07/10 11:00:42;;;;;;;3.75;1.90;;;23.60;99.90;;;;;;4442612;32;20191;-61
2021/07/10 11:03:11;;;;;;;5.03;2.10;;;23.90;99.90;;;;;;4441972;32;20139;-60
2021/07/10 11:05:38;;;;;;;3.70;2.10;;;24.00;99.90;;;;;;4442014;32;20181;-60
2021/07/10 11:08:25;;;;;;;2.83;2.00;;;23.40;99.90;;;;;;4442697;32;20202;-60
2021/07/10 11:10:56;;;;;;;2.22;1.73;;;23.00;99.90;;;;;;4442557;32;20256;-60
2021/07/10 11:13:47;;;;;;;1.97;1.70;;;23.30;99.90;;;;;;4441626;32;20138;-60
2021/07/10 11:16:16;;;;;;;3.70;1.80;;;23.40;99.90;;;;;;4441926;32;20214;-61
2021/07/10 11:18:56;;;;;;;3.33;1.85;;;23.60;99.90;;;;;;4442443;32;20234;-60
2021/07/10 11:21:34;;;;;;;2.42;1.80;;;23.70;99.90;;;;;;4442952;32;20161;-60
2021/07/10 11:24:15;;;;;;;2.03;1.60;;;23.00;99.90;;;;;;4442619;32;20313;-59
2021/07/10 11:26:54;;;;;;;3.60;1.63;;;22.50;99.90;;;;;;4440563;32;20200;-60
2021/07/10 11:29:33;;;;;;;1.57;1.47;;;22.40;99.90;;;;;;4442118;32;20150;-61
2021/07/10 11:32:13;;;;;;;2.37;1.70;;;22.20;99.90;;;;;;4442022;32;20146;-60
2021/07/10 11:34:40;;;;;;;3.92;1.80;;;22.20;99.90;;;;;;4442039;32;20435;-60
2021/07/10 11:37:15;;;;;;;2.17;1.60;;;22.40;99.90;;;;;;4442080;32;20173;-60
2021/07/10 11:39:50;;;;;;;3.20;2.00;;;22.30;99.90;;;;;;4442177;32;20160;-60
2021/07/10 11:42:17;;;;;;;2.10;1.90;;;22.00;99.90;;;;;;4442116;32;20374;-60
2021/07/10 11:44:50;;;;;;;4.27;1.80;;;21.70;99.90;;;;;;4442330;32;20447;-60
2021/07/10 11:47:29;;;;;;;2.23;2.00;;;21.70;99.90;;;;;;4440900;32;20429;-60
2021/07/10 11:49:57;;;;;;;2.07;1.97;;;21.80;99.90;;;;;;4442013;32;20169;-60
2021/07/10 11:52:24;;;;;;;2.23;2.03;;;21.80;99.90;;;;;;4442260;32;20219;-60
2021/07/10 11:55:03;;;;;;;2.30;2.10;;;21.70;99.90;;;;;;4442127;32;20440;-60
2021/07/10 11:57:43;;;;;;;2.10;2.00;;;22.00;99.90;;;;;;4439848;32;20525;-60
2021/07/10 12:00:13;;;;;;;3.00;2.13;;;22.20;99.90;;;;;;4441684;32;20369;-59
2021/07/10 12:02:41;;;;;;;2.13;1.93;;;22.20;99.90;;;;;;4440264;32;20154;-60
2021/07/10 12:05:17;;;;;;;3.17;2.10;;;22.20;99.90;;;;;;4439502;32;20165;-60
2021/07/10 12:07:49;;;;;;;2.23;2.03;;;21.80;99.90;;;;;;4441666;32;20194;-60
2021/07/10 12:10:35;;;;;;;2.60;1.90;;;21.80;99.90;;;;;;4441458;32;20208;-60
2021/07/10 12:13:37;;;;;;;2.17;1.90;;;21.60;99.90;;;;;;4442165;32;20157;-60
2021/07/10 12:16:06;;;;;;;3.10;1.90;;;21.70;99.90;;;;;;4441525;32;20181;-60
2021/07/10 12:18:35;;;;;;;2.83;1.90;;;22.00;99.90;;;;;;4441455;32;20172;-61
2021/07/10 12:21:07;;;;;;;2.20;2.00;;;22.50;99.90;;;;;;4441399;32;20214;-60
2021/07/10 12:23:43;;;;;;;2.87;2.10;;;22.70;99.90;;;;;;4441524;32;20138;-60
2021/07/10 12:26:15;;;;;;;2.87;2.20;;;22.70;99.90;;;;;;4439867;32;20162;-60
2021/07/10 12:28:49;;;;;;;2.40;2.20;;;22.90;99.90;;;;;;4441427;32;20147;-60
2021/07/10 12:31:21;;;;;;;2.67;2.47;;;23.10;99.90;;;;;;4441390;32;20233;-60
2021/07/10 12:33:57;;;;;;;2.80;2.60;;;22.90;99.90;;;;;;4441076;32;20192;-60
2021/07/10 12:36:38;;;;;;;4.10;2.20;;;22.40;99.90;;;;;;4441514;32;20146;-60
2021/07/10 12:39:19;;;;;;;2.67;2.40;;;22.10;99.90;;;;;;4441151;32;20199;-60
2021/07/10 12:41:54;;;;;;;2.63;2.43;;;22.30;99.90;;;;;;4441342;32;20198;-60
2021/07/10 12:44:31;;;;;;;2.73;2.30;;;22.30;99.90;;;;;;4441715;32;20195;-60